Taurus — DSQW7 — position and weather

sailwx.info

Track history (hours):
 
Tides and Currents Weather Stations Pressure Air Temp Water Temp Dewpoint Dewpoint Depression Visibility Wind Speed Wind Dir Waves Ship Positions

Taurus

Last reported at 2018-Jul-10 06:34 UTC. Time now 2018-Jul-20 06:24 UTC.
Position N 33°52' E 135°00'.
Warning: this ship's position is 9 days out of date.

Length 109 m; draft 6.7 m.

Type: Cargo ship. MMSI: 441737000.

Date/timePositionNaut miles runAvg speedWind from/ knotsBaromVisibWave heightAir tempDewpointWater temp
2018-Jul-10 06:34N 33°52' E 135°00'1 9.6
2018-Jul-10 06:31N 33°53' E 134°60'5 9.7
2018-Jul-10 06:01N 33°58' E 134°59'510.0
2018-Jul-10 05:30N 34°03' E 134°59'510.6
2018-Jul-10 05:00N 34°08' E 134°59'611.4
2018-Jul-10 04:30N 34°14' E 134°59'510.9
2018-Jul-10 04:01N 34°19' E 134°59'510.4
2018-Jul-10 03:30N 34°24' E 135°00'510.9
2018-Jul-10 03:00N 34°29' E 135°02'611.2
2018-Jul-10 02:30N 34°35' E 135°03'611.6
2018-Jul-10 01:57N 34°36' E 134°56'613.0
2018-Jul-10 01:30N 34°33' E 134°49'611.3
2018-Jul-10 01:00N 34°31' E 134°43'510.8
2018-Jul-10 00:30N 34°29' E 134°37'610.9
2018-Jul-10 00:00N 34°27' E 134°31'510.4
2018-Jul-09 23:30N 34°25' E 134°25'  
Track history (hours):
 
Tides and Currents Weather Stations Pressure Air Temp Water Temp Dewpoint Dewpoint Depression Visibility Wind Speed Wind Dir Waves Ship Positions

Taurus

Last reported at 2018-Jul-10 06:34 UTC. Time now 2018-Jul-20 06:24 UTC.
Position N 33°52' E 135°00'.
Warning: this ship's position is 9 days out of date.

Length 109 m; draft 6.7 m.

Type: Cargo ship. MMSI: 441737000.

Date/timePositionNaut miles runAvg speedWind from/ knotsBaromVisibWave heightAir tempDewpointWater temp
2018-Jul-10 06:34N 33°52' E 135°00'1 9.6
2018-Jul-10 06:31N 33°53' E 134°60'5 9.7
2018-Jul-10 06:01N 33°58' E 134°59'510.0
2018-Jul-10 05:30N 34°03' E 134°59'510.6
2018-Jul-10 05:00N 34°08' E 134°59'611.4
2018-Jul-10 04:30N 34°14' E 134°59'510.9
2018-Jul-10 04:01N 34°19' E 134°59'510.4
2018-Jul-10 03:30N 34°24' E 135°00'510.9
2018-Jul-10 03:00N 34°29' E 135°02'611.2
2018-Jul-10 02:30N 34°35' E 135°03'611.6
2018-Jul-10 01:57N 34°36' E 134°56'613.0
2018-Jul-10 01:30N 34°33' E 134°49'611.3
2018-Jul-10 01:00N 34°31' E 134°43'510.8
2018-Jul-10 00:30N 34°29' E 134°37'610.9
2018-Jul-10 00:00N 34°27' E 134°31'510.4
2018-Jul-09 23:30N 34°25' E 134°25'  

Dump ship's entire track history